Latest Weather Observations for Adelaide

IDS60801

Issued at 7:05 pm CST Friday 1 August 2014 (issued every 30 minutes, with the page automatically refreshed every 10 minutes)

About weather observations | Map of weather stations | Latest weather observations for SA | Other Formats
Station Details ID: 023090 Name: KENT TOWN Lat: -34.92 Lon: 138.62 Height: 48.0 m
Data from the previous 72 hours. | See also: Recent months at Adelaide
Date/Time
CST
Temp
°C
App
Temp
°C
Dew
Point
Rel
Hum
%
Delta-T
°C
Wind Press
QNH
hPa
Press
MSL
hPa
Rain
since 9 am
mm
Dir
 
Spd
km/h
Gust
km/h
Spd
kts
Gust
kts
01/07:00pm 7.1 5.2 3.0 75 1.7 SSE 2 7 1 4 1026.5 - 2.4
01/06:30pm 7.7 6.1 2.7 70 2.1 SSE 0 0 0 0 1025.8 - 2.4
01/06:00pm 8.3 5.6 2.6 67 2.4 SW 6 11 3 6 1025.2 1025.3 2.4
01/05:30pm 9.5 6.4 1.2 56 3.4 SSW 7 15 4 8 1024.9 - 2.4
01/05:00pm 10.1 5.4 0.8 52 3.8 S 15 28 8 15 1024.3 - 2.4
01/04:30pm 10.8 5.3 0.5 49 4.2 S 19 28 10 15 1023.8 - 2.4
01/04:00pm 12.2 5.7 -2.1 37 5.6 SSW 22 37 12 20 1022.9 - 2.4
01/03:30pm 12.3 5.9 1.1 46 4.7 SW 24 41 13 22 1022.3 - 2.4
01/03:03pm 12.0 4.6 -0.6 41 5.1 SW 28 50 15 27 1022.0 - 2.4
01/03:00pm 12.2 5.3 0.3 44 4.9 SW 26 46 14 25 1022.0 1022.1 2.4
01/02:30pm 12.2 4.1 -0.3 42 5.1 SW 32 52 17 28 1021.6 - 2.4
01/02:26pm 12.1 4.8 0.2 44 4.9 SW 28 46 15 25 1021.5 - 2.4
01/02:00pm 11.7 6.7 4.4 61 3.3 SW 20 39 11 21 1021.1 - 2.4
01/01:30pm 10.9 5.8 3.1 58 3.4 SW 19 35 10 19 1020.9 - 2.4
01/01:00pm 9.1 5.3 5.8 80 1.5 SSW 15 24 8 13 1020.7 - 2.4
01/12:35pm 9.0 2.7 5.5 79 1.6 SW 28 57 15 31 1020.8 - 2.0
01/12:30pm 11.1 5.4 4.9 65 2.8 WSW 24 44 13 24 1020.4 - 1.8
01/12:00pm 9.6 5.4 5.7 76 1.8 WSW 17 26 9 14 1020.4 1020.5 1.8
01/11:30am 9.7 5.5 5.5 75 1.9 WSW 17 33 9 18 1020.0 - 1.6
01/11:00am 7.3 1.9 4.5 82 1.2 SW 22 37 12 20 1020.0 - 1.6
01/10:30am 10.9 3.6 2.5 56 3.6 SW 30 48 16 26 1019.2 - 0.4
01/10:00am 10.1 3.5 4.0 66 2.7 SW 28 46 15 25 1018.6 - 0.4
01/09:50am 10.0 3.3 3.6 64 2.8 SW 28 46 15 25 1018.3 - 0.4
01/09:30am 9.3 4.2 4.3 71 2.2 SW 20 37 11 20 1017.9 - 0.4
01/09:00am 7.9 3.1 4.5 79 1.5 SW 19 32 10 17 1017.3 1017.4 16.4
01/08:33am 10.2 2.1 1.0 53 3.8 WSW 33 54 18 29 1016.2 - 16.2
01/08:30am 10.3 2.4 1.1 53 3.8 WSW 32 48 17 26 1016.1 - 16.2
01/08:07am 9.8 2.8 1.7 57 3.4 WSW 28 46 15 25 1015.8 - 16.2
01/08:00am 9.6 3.3 1.4 56 3.4 WSW 24 46 13 25 1015.6 - 16.2
01/07:31am 9.7 2.5 0.6 53 3.7 SW 28 63 15 34 1015.0 - 16.2
01/07:30am 9.7 2.9 0.9 54 3.6 SW 26 44 14 24 1015.0 - 16.2
01/07:00am 9.7 1.8 0.9 54 3.6 WSW 32 56 17 30 1014.3 - 16.2
01/06:40am 10.1 2.5 0.6 51 3.9 WSW 30 52 16 28 1013.7 - 16.2
01/06:30am 9.7 3.0 1.2 55 3.5 WSW 26 43 14 23 1013.5 - 16.2
01/06:00am 9.5 2.5 1.9 59 3.2 WSW 28 48 15 26 1013.2 1013.2 16.2
01/05:35am 8.8 1.8 1.8 61 2.9 WSW 28 46 15 25 1012.7 - 16.2
01/05:30am 8.6 2.4 1.9 63 2.8 WSW 24 46 13 25 1012.5 - 16.2
01/05:00am 7.0 -0.9 4.2 82 1.2 W 35 61 19 33 1012.3 - 16.2
01/04:35am 9.3 2.3 2.2 61 3.0 WSW 28 46 15 25 1011.5 - 15.8
01/04:30am 9.2 1.4 1.5 58 3.2 WSW 32 48 17 26 1011.6 - 15.8
01/04:23am 9.3 2.1 0.7 55 3.5 WSW 28 48 15 26 1011.6 - 15.8
01/04:00am 8.1 2.6 4.0 75 1.8 W 22 39 12 21 1011.4 - 15.8
01/03:30am 7.8 1.5 3.9 76 1.7 W 26 56 14 30 1011.4 - 15.8
01/03:14am 8.3 1.7 4.4 76 1.7 W 28 61 15 33 1011.6 - 15.6
01/03:00am 7.5 1.4 5.0 84 1.1 W 26 41 14 22 1011.4 1011.5 15.6
01/02:30am 7.5 2.6 4.0 78 1.5 W 19 30 10 16 1011.2 - 15.4
01/02:00am 7.3 -0.1 3.8 78 1.5 WSW 32 54 17 29 1011.5 - 15.4
01/01:51am 8.0 1.5 4.6 79 1.5 W 28 54 15 29 1011.8 - 15.2
01/01:30am 6.8 3.4 4.0 82 1.2 W 11 19 6 10 1011.4 - 15.2
01/01:00am 6.5 3.6 4.7 88 0.8 WSW 9 30 5 16 1011.6 - 15.2
01/12:30am 7.7 0.8 4.5 80 1.4 WSW 30 61 16 33 1012.0 - 14.4
01/12:01am 9.7 2.6 1.2 55 3.5 W 28 46 15 25 1011.3 - 14.2
01/12:00am 9.7 2.6 1.2 55 3.5 W 28 41 15 22 1011.2 1011.3 14.2
 
Date/Time
CST
Temp
°C
App
Temp
°C
Dew
Point
Rel
Hum
%
Delta-T
°C
Wind Press
QNH
hPa
Press
MSL
hPa
Rain
since 9 am
mm
Dir
 
Spd
km/h
Gust
km/h
Spd
kts
Gust
kts
31/11:38pm 9.4 2.6 2.9 64 2.8 W 28 46 15 25 1011.0 - 14.2
31/11:30pm 9.5 2.9 2.2 60 3.1 W 26 46 14 25 1011.0 - 14.2
31/11:00pm 9.4 3.3 2.6 62 2.9 W 24 37 13 20 1010.9 - 14.2
31/10:30pm 9.0 3.3 2.9 65 2.6 W 22 41 12 22 1010.9 - 14.2
31/10:00pm 8.5 3.2 2.9 68 2.4 W 20 41 11 22 1010.9 - 14.2
31/09:30pm 8.1 3.2 4.2 76 1.7 W 19 32 10 17 1010.8 - 14.2
31/09:00pm 6.9 3.8 5.6 91 0.6 WSW 11 20 6 11 1010.9 1011.0 14.2
31/08:30pm 7.5 0.6 4.5 81 1.3 SW 30 50 16 27 1011.3 - 13.0
31/08:27pm 8.1 0.6 4.5 78 1.6 SW 33 50 18 27 1011.2 - 13.0
31/08:00pm 7.0 3.8 5.2 88 0.8 W 11 20 6 11 1010.4 - 13.0
31/07:30pm 6.7 -0.2 4.6 86 0.9 SW 30 80 16 43 1010.3 - 12.8
31/07:27pm 6.8 -1.8 4.5 85 1.0 SSW 39 80 21 43 1010.3 - 12.8
31/07:26pm 6.9 -2.1 4.4 84 1.1 SW 41 80 22 43 1010.4 - 12.6
31/07:22pm 8.2 -2.5 4.6 78 1.6 WSW 50 80 27 43 1010.5 - 12.2
31/07:00pm 9.4 4.5 5.2 75 1.9 WNW 20 35 11 19 1009.3 - 12.2
31/06:30pm 9.3 5.3 4.8 73 2.0 W 15 26 8 14 1009.0 - 12.2
31/06:00pm 9.2 4.1 4.2 71 2.2 WSW 20 35 11 19 1008.7 1008.8 12.2
31/05:43pm 9.1 2.8 5.8 80 1.5 SW 28 48 15 26 1008.7 - 12.2
31/05:30pm 9.5 3.9 5.6 76 1.8 WSW 24 37 13 20 1008.1 - 12.2
31/05:00pm 9.4 5.1 7.9 90 0.7 WSW 20 32 11 17 1007.6 - 12.2
31/04:39pm 10.0 4.3 8.2 88 0.9 W 28 46 15 25 1007.0 - 11.8
31/04:30pm 10.1 3.9 8.0 87 1.0 W 30 44 16 24 1007.0 - 11.8
31/04:23pm 10.6 4.9 8.4 86 1.1 W 28 52 15 28 1006.9 - 11.8
31/04:00pm 10.5 6.4 8.7 89 0.9 W 20 33 11 18 1006.6 - 11.6
31/03:48pm 10.5 4.3 9.3 92 0.6 WSW 32 50 17 27 1006.5 - 11.6
31/03:30pm 10.7 7.3 9.3 91 0.7 W 17 26 9 14 1006.1 - 11.2
31/03:02pm 11.1 5.9 10.1 94 0.5 W 28 48 15 26 1006.1 - 10.4
31/03:00pm 11.2 7.6 10.4 95 0.4 W 20 37 11 20 1006.0 1006.1 9.8
31/02:30pm 11.1 8.7 9.9 92 0.6 WNW 13 20 7 11 1005.6 - 9.0
31/02:00pm 11.0 7.3 10.0 93 0.5 W 20 35 11 19 1005.8 - 9.0
31/01:30pm 10.6 5.7 10.0 96 0.3 W 26 41 14 22 1005.3 - 8.0
31/01:00pm 10.8 5.9 10.0 95 0.4 WSW 26 43 14 23 1005.1 - 6.0
31/12:30pm 11.3 7.0 10.7 96 0.3 WSW 24 41 13 22 1005.1 - 3.2
31/12:21pm 11.7 6.7 10.9 95 0.4 WSW 28 44 15 24 1005.0 - 2.4
31/12:12pm 12.9 6.1 10.8 87 1.1 WNW 37 56 20 30 1005.0 - 1.4
31/12:00pm 14.9 8.7 7.7 62 3.6 NNW 30 54 16 29 1004.3 1004.4 0.2
31/11:30am 15.2 7.9 7.1 58 4.0 NNW 35 54 19 29 1004.8 - 0.2
31/11:00am 15.9 9.1 7.0 55 4.4 NNW 32 52 17 28 1005.4 - 0.2
31/10:30am 16.1 10.2 7.3 56 4.4 NNW 28 54 15 29 1006.0 - 0.2
31/10:02am 15.8 9.9 7.4 57 4.2 N 28 46 15 25 1005.9 - 0.2
31/10:00am 15.7 9.8 7.3 57 4.2 N 28 41 15 22 1006.0 - 0.2
31/09:52am 15.5 9.6 7.3 58 4.1 N 28 50 15 27 1006.1 - 0.2
31/09:30am 14.8 10.1 7.6 62 3.6 N 22 32 12 17 1006.6 - 0.2
31/09:00am 14.2 10.1 7.8 65 3.2 N 19 30 10 16 1007.1 1007.2 0.0
31/08:30am 13.2 9.8 7.5 68 2.8 N 15 28 8 15 1007.3 - 0.0
31/08:00am 11.9 8.4 7.1 72 2.3 N 15 26 8 14 1007.4 - 0.0
31/07:30am 10.9 7.7 6.9 76 1.9 N 13 19 7 10 1007.2 - 0.0
31/07:00am 11.3 7.4 6.9 74 2.1 N 17 24 9 13 1007.6 - 0.0
31/06:30am 10.6 7.7 6.6 76 1.9 N 11 20 6 11 1007.8 - 0.0
31/06:00am 10.4 7.8 6.3 76 1.9 N 9 17 5 9 1007.7 1007.8 0.0
31/05:30am 10.8 7.5 6.3 74 2.1 N 13 22 7 12 1007.7 - 0.0
31/05:00am 11.0 7.7 6.3 73 2.2 NNE 13 20 7 11 1008.0 - 0.0
31/04:30am 10.8 7.9 6.6 75 2.0 NNE 11 17 6 9 1008.1 - 0.0
31/04:00am 10.9 7.7 6.7 75 2.0 NE 13 19 7 10 1008.4 - 0.0
31/03:30am 10.9 8.1 6.9 76 1.9 NE 11 19 6 10 1009.0 - 0.0
31/03:00am 11.0 8.3 7.3 78 1.8 NE 11 17 6 9 1009.5 1009.6 0.0
31/02:30am 11.0 8.4 7.7 80 1.6 NE 11 17 6 9 1010.0 - 0.0
31/02:00am 11.3 9.1 7.8 79 1.7 NNE 9 20 5 11 1010.6 - 0.0
31/01:30am 11.2 8.7 8.1 81 1.5 NE 11 17 6 9 1011.1 - 0.0
31/01:00am 10.8 8.7 8.4 85 1.2 NE 9 15 5 8 1011.3 - 0.0
31/12:30am 10.5 8.5 8.7 89 0.9 NE 9 13 5 7 1011.7 - 0.0
31/12:00am 10.6 9.1 9.0 90 0.8 NE 7 11 4 6 1012.1 1012.2 0.0
 
Date/Time
CST
Temp
°C
App
Temp
°C
Dew
Point
Rel
Hum
%
Delta-T
°C
Wind Press
QNH
hPa
Press
MSL
hPa
Rain
since 9 am
mm
Dir
 
Spd
km/h
Gust
km/h
Spd
kts
Gust
kts
30/11:30pm 10.9 9.0 9.1 89 0.9 NE 9 13 5 7 1012.7 - 0.0
30/11:00pm 11.3 9.9 9.5 89 0.9 NE 7 9 4 5 1013.0 - 0.0
30/10:30pm 12.1 10.7 9.7 85 1.2 NNE 7 11 4 6 1013.4 - 0.0
30/10:00pm 12.9 11.7 10.2 84 1.4 NNE 7 13 4 7 1013.8 - 0.0
30/09:30pm 13.5 11.9 10.2 80 1.7 N 9 13 5 7 1014.1 - 0.0
30/09:00pm 13.9 12.3 10.3 79 1.9 NNW 9 13 5 7 1014.2 1014.2 0.0
30/08:30pm 13.7 12.2 10.4 80 1.7 N 9 13 5 7 1014.5 - 0.0
30/08:00pm 14.1 12.3 10.7 80 1.8 NNW 11 20 6 11 1014.7 - 0.0
30/07:30pm 14.6 12.7 10.6 77 2.1 NNW 11 19 6 10 1014.9 - 0.0
30/07:00pm 14.6 12.8 11.0 79 1.9 N 11 19 6 10 1015.0 - 0.0
30/06:30pm 14.6 12.9 11.2 80 1.8 N 11 17 6 9 1015.0 - 0.0
30/06:00pm 14.7 12.2 10.9 78 2.0 N 15 20 8 11 1014.8 1014.9 0.0
30/05:30pm 15.1 11.8 11.0 76 2.2 NNW 19 32 10 17 1014.8 - 0.0
30/05:00pm 15.3 12.5 11.2 76 2.2 NNW 17 28 9 15 1014.7 - 0.0
30/04:30pm 15.5 12.0 10.8 73 2.5 NNW 20 33 11 18 1014.9 - 0.0
30/04:00pm 15.6 12.2 11.1 74 2.4 NW 20 33 11 18 1015.2 - 0.0
30/03:30pm 15.8 11.9 10.9 72 2.6 NW 22 35 12 19 1015.3 - 0.0
30/03:00pm 16.3 13.0 11.5 73 2.6 NW 20 43 11 23 1015.5 1015.6 0.0
30/02:30pm 16.4 12.3 11.4 72 2.7 NW 24 33 13 18 1015.6 - 0.0
30/02:00pm 16.2 13.1 11.6 74 2.5 NW 19 30 10 16 1015.9 - 0.0
30/01:30pm 16.0 12.9 11.6 75 2.4 NW 19 35 10 19 1016.2 - 0.0
30/01:00pm 16.0 12.4 11.8 76 2.3 NW 22 30 12 16 1016.7 - 0.0
30/12:30pm 16.2 13.0 11.8 75 2.4 NW 20 33 11 18 1017.1 - 0.0
30/12:00pm 15.9 11.9 11.8 76 2.2 NW 24 39 13 21 1017.7 1017.8 0.0
30/11:30am 16.4 13.4 11.8 74 2.5 NW 19 30 10 16 1018.0 - 0.0
30/11:00am 16.1 13.5 11.9 76 2.3 NW 17 26 9 14 1018.3 - 0.0
30/10:30am 14.4 10.7 11.4 82 1.6 NNW 22 32 12 17 1018.8 - 0.0
30/10:00am 13.7 11.4 11.6 87 1.1 NW 15 20 8 11 1018.9 - 0.0
30/09:30am 13.4 10.3 11.5 88 1.0 NNW 19 30 10 16 1019.1 - 0.0
30/09:00am 13.5 11.2 11.6 88 1.0 NW 15 24 8 13 1018.7 1018.8 3.2
30/08:30am 13.1 10.8 11.6 91 0.8 NW 15 26 8 14 1018.5 - 3.2
30/08:00am 12.9 10.2 11.6 92 0.7 NNW 17 22 9 12 1018.7 - 3.2
30/07:30am 12.8 10.0 11.5 92 0.7 NNW 17 24 9 13 1018.7 - 3.2
30/07:00am 12.8 10.0 11.5 92 0.7 NNW 17 24 9 13 1018.5 - 3.2
30/06:30am 12.8 10.8 11.5 92 0.7 NNW 13 20 7 11 1018.3 - 3.2
30/06:00am 12.8 10.4 11.5 92 0.7 NNW 15 22 8 12 1018.0 1018.1 3.2
30/05:30am 12.8 10.8 11.5 92 0.7 N 13 20 7 11 1017.8 - 3.2
30/05:00am 12.9 10.9 11.6 92 0.7 N 13 20 7 11 1017.8 - 3.2
30/04:30am 13.0 10.7 11.9 93 0.6 N 15 24 8 13 1017.5 - 3.2
30/04:00am 13.0 11.5 11.9 93 0.6 NNW 11 19 6 10 1017.9 - 3.2
30/03:30am 13.0 11.5 11.9 93 0.6 NNW 11 17 6 9 1018.0 - 3.2
30/03:00am 13.1 11.6 11.8 92 0.7 NNW 11 17 6 9 1018.2 1018.3 3.2
30/02:30am 13.2 11.3 11.9 92 0.7 NNW 13 20 7 11 1018.4 - 3.2
30/02:00am 13.3 11.0 11.8 91 0.8 NNW 15 24 8 13 1018.5 - 3.2
30/01:30am 13.3 11.1 12.0 92 0.7 NNW 15 24 8 13 1018.7 - 3.2
30/01:00am 13.4 11.2 12.1 92 0.7 NNW 15 24 8 13 1018.7 - 3.2
30/12:30am 13.5 11.7 12.0 91 0.8 NNW 13 22 7 12 1018.7 - 3.2
30/12:00am 13.7 11.5 12.0 89 0.9 NW 15 19 8 10 1018.9 1019.0 3.2
 
Date/Time
CST
Temp
°C
App
Temp
°C
Dew
Point
Rel
Hum
%
Delta-T
°C
Wind Press
QNH
hPa
Press
MSL
hPa
Rain
since 9 am
mm
Dir
 
Spd
km/h
Gust
km/h
Spd
kts
Gust
kts
29/11:30pm 13.7 11.5 12.2 91 0.8 NW 15 26 8 14 1019.0 - 3.2
29/11:00pm 13.8 11.2 12.1 89 0.9 NW 17 28 9 15 1019.1 - 3.2
29/10:30pm 14.2 11.9 11.8 85 1.3 NW 15 22 8 12 1019.0 - 3.2
29/10:00pm 14.3 11.0 11.7 84 1.4 WNW 20 39 11 21 1019.0 - 3.2
29/09:30pm 14.2 11.3 12.2 88 1.1 WNW 19 30 10 16 1018.8 - 3.2
29/09:00pm 13.7 11.5 12.0 89 0.9 WNW 15 26 8 14 1018.8 1018.9 3.2
29/08:30pm 13.9 11.3 11.9 88 1.1 WNW 17 30 9 16 1018.5 - 3.2
29/08:00pm 13.9 11.4 12.2 89 0.9 WNW 17 30 9 16 1018.3 - 3.2
29/07:30pm 13.7 12.0 12.4 92 0.7 NW 13 20 7 11 1018.0 - 3.2

Other Formats:

Comma delimited format used in spreadsheet applications
http://www.bom.gov.au/fwo/IDS60801/IDS60801.94675.axf

JavaScript Object Notation format (JSON) in row-major order
http://www.bom.gov.au/fwo/IDS60801/IDS60801.94675.json